Time;durP1;ratioP1;P1;durP2;ratioP2;P2;SDS_P1;SDS_P2;PMS_P1;PMS_P2;Temp;Humidity;BMP_temperature;BMP_pressure;BME280_temperature;BME280_humidity;BME280_pressure;Samples;Min_cycle;Max_cycle;Signal;HPM_P1;HPM_P2
2022/02/25 00:00:41;;;;;;;4.78;3.92;;;3.80;99.90;;;;;;5014097;28;20477;-59
2022/02/25 00:03:07;;;;;;;5.20;3.38;;;3.80;99.90;;;;;;5012766;28;20041;-57
2022/02/25 00:05:34;;;;;;;4.88;3.67;;;3.80;99.90;;;;;;5013222;28;20026;-57
2022/02/25 00:08:00;;;;;;;4.60;4.20;;;3.80;99.90;;;;;;5013592;28;20030;-57
2022/02/25 00:10:26;;;;;;;4.97;3.28;;;3.80;99.90;;;;;;5013621;28;20033;-58
2022/02/25 00:12:51;;;;;;;4.88;3.58;;;3.80;99.90;;;;;;5013306;28;20106;-59
2022/02/25 00:15:17;;;;;;;5.00;3.95;;;3.80;99.90;;;;;;5013225;28;20050;-58
2022/02/25 00:17:43;;;;;;;3.88;3.47;;;3.90;99.90;;;;;;5013334;28;20148;-58
2022/02/25 00:20:11;;;;;;;4.70;3.50;;;4.00;99.90;;;;;;5013335;28;20044;-57
2022/02/25 00:22:37;;;;;;;6.60;4.25;;;3.90;99.90;;;;;;5013381;28;20045;-55
2022/02/25 00:25:04;;;;;;;5.22;4.15;;;3.90;99.90;;;;;;5012459;28;20371;-56
2022/02/25 00:27:29;;;;;;;4.45;4.05;;;3.70;99.90;;;;;;5014070;28;20557;-57
2022/02/25 00:29:55;;;;;;;6.25;4.45;;;3.60;99.90;;;;;;5013088;28;20117;-59
2022/02/25 00:32:21;;;;;;;5.75;4.45;;;3.50;99.90;;;;;;5012742;28;20494;-59
2022/02/25 00:34:47;;;;;;;6.30;4.35;;;3.50;99.90;;;;;;5018356;28;20041;-55
2022/02/25 00:37:12;;;;;;;5.07;4.15;;;3.60;99.90;;;;;;5033115;28;20037;-57
2022/02/25 00:39:38;;;;;;;5.38;4.10;;;3.80;99.90;;;;;;5015665;28;20032;-57
2022/02/25 00:42:06;;;;;;;6.30;4.22;;;3.90;99.90;;;;;;5019648;28;20037;-58
2022/02/25 00:44:32;;;;;;;5.65;3.60;;;3.90;99.90;;;;;;5012857;28;20033;-58
2022/02/25 00:46:57;;;;;;;6.13;3.75;;;3.80;99.90;;;;;;5012816;28;20026;-56
2022/02/25 00:49:23;;;;;;;4.50;3.40;;;3.80;99.90;;;;;;5012788;28;20474;-58
2022/02/25 00:51:48;;;;;;;5.38;3.80;;;3.80;99.90;;;;;;5012527;28;20037;-56
2022/02/25 00:54:14;;;;;;;6.32;4.00;;;3.80;99.90;;;;;;5012897;28;20045;-59
2022/02/25 00:56:40;;;;;;;5.50;3.92;;;3.70;99.90;;;;;;5013129;28;20049;-57
2022/02/25 00:59:05;;;;;;;6.30;3.85;;;3.80;99.90;;;;;;5013277;28;20137;-59
2022/02/25 01:01:31;;;;;;;6.13;4.28;;;3.70;99.90;;;;;;5011682;28;20042;-59
2022/02/25 01:03:56;;;;;;;6.47;4.20;;;3.70;99.90;;;;;;5010983;28;20033;-58
2022/02/25 01:06:22;;;;;;;5.18;3.83;;;3.80;99.90;;;;;;4995304;28;20029;-61
2022/02/25 01:08:47;;;;;;;6.28;3.80;;;3.70;99.90;;;;;;5013304;28;20455;-60
2022/02/25 01:11:13;;;;;;;11.15;4.35;;;3.80;99.90;;;;;;4995455;28;20060;-57
2022/02/25 01:13:52;;;;;;;5.38;3.85;;;3.70;99.90;;;;;;5012842;28;20038;-58
2022/02/25 01:16:20;;;;;;;7.00;3.72;;;3.80;99.90;;;;;;5012035;28;20528;-59
2022/02/25 01:18:46;;;;;;;5.78;3.78;;;3.90;99.90;;;;;;4995199;28;20080;-58
2022/02/25 01:21:12;;;;;;;4.68;3.80;;;3.80;99.90;;;;;;5013399;28;20038;-52
2022/02/25 01:23:37;;;;;;;6.45;3.78;;;3.80;99.90;;;;;;5012197;28;20647;-58
2022/02/25 01:26:03;;;;;;;5.68;3.65;;;3.80;99.90;;;;;;5012951;28;20096;-57
2022/02/25 01:28:29;;;;;;;6.18;4.10;;;3.80;99.90;;;;;;5012556;28;20501;-57
2022/02/25 01:30:54;;;;;;;6.75;4.25;;;3.80;99.90;;;;;;5012776;28;20030;-55
2022/02/25 01:33:20;;;;;;;12.32;4.18;;;3.80;99.90;;;;;;4994531;28;20048;-58
2022/02/25 01:35:45;;;;;;;4.72;3.75;;;3.70;99.90;;;;;;5026340;28;20048;-57
2022/02/25 01:38:11;;;;;;;6.28;4.20;;;3.80;99.90;;;;;;5032332;28;20049;-57
2022/02/25 01:40:37;;;;;;;7.57;5.03;;;3.80;99.90;;;;;;5031147;28;20129;-58
2022/02/25 01:43:03;;;;;;;6.30;4.72;;;3.70;99.90;;;;;;5012460;28;20037;-57
2022/02/25 01:45:29;;;;;;;6.57;4.90;;;3.60;99.90;;;;;;4994809;28;20033;-55
2022/02/25 01:47:54;;;;;;;5.85;4.30;;;3.60;99.90;;;;;;5010800;28;20018;-57
2022/02/25 01:50:20;;;;;;;6.25;4.90;;;3.60;99.90;;;;;;5012464;28;20026;-52
2022/02/25 01:53:06;;;;;;;6.15;4.80;;;3.80;99.90;;;;;;5012192;28;20076;-53
2022/02/25 01:55:34;;;;;;;5.90;5.30;;;3.80;99.90;;;;;;5012472;28;20034;-57
2022/02/25 01:58:00;;;;;;;6.78;5.15;;;3.60;99.90;;;;;;5012366;28;20034;-56
2022/02/25 02:00:26;;;;;;;7.43;5.60;;;3.50;99.90;;;;;;5011918;28;20048;-58
2022/02/25 02:02:52;;;;;;;8.75;6.15;;;3.60;99.90;;;;;;5011917;28;20096;-58
2022/02/25 02:05:18;;;;;;;5.80;5.05;;;3.40;99.90;;;;;;5012238;28;20449;-56
2022/02/25 02:07:44;;;;;;;8.43;5.47;;;3.40;99.90;;;;;;5012174;28;20030;-56
2022/02/25 02:10:10;;;;;;;8.35;5.60;;;3.40;99.90;;;;;;5012169;28;20394;-58
2022/02/25 02:12:36;;;;;;;7.63;5.55;;;3.40;99.90;;;;;;5012166;28;20022;-60
2022/02/25 02:15:04;;;;;;;7.30;5.93;;;3.30;99.90;;;;;;4996997;28;20037;-58
2022/02/25 02:17:30;;;;;;;8.55;5.72;;;3.30;99.90;;;;;;5015968;28;20037;-55
2022/02/25 02:19:56;;;;;;;7.50;5.40;;;3.30;99.90;;;;;;5015786;28;20045;-56
2022/02/25 02:22:25;;;;;;;6.57;5.65;;;3.40;99.90;;;;;;5015712;28;20026;-60
2022/02/25 02:24:51;;;;;;;7.88;6.10;;;3.20;99.90;;;;;;5016157;28;20116;-56
2022/02/25 02:27:17;;;;;;;7.30;5.70;;;3.20;99.90;;;;;;5015600;28;20056;-57
2022/02/25 02:29:42;;;;;;;7.30;5.32;;;3.30;99.90;;;;;;5015220;28;20030;-55
2022/02/25 02:32:08;;;;;;;7.43;5.43;;;3.30;99.90;;;;;;5015255;28;20092;-57
2022/02/25 02:34:34;;;;;;;8.50;5.60;;;3.20;99.90;;;;;;5014035;28;20394;-59
2022/02/25 02:37:00;;;;;;;6.88;5.55;;;3.20;99.90;;;;;;5013849;28;20038;-57
2022/02/25 02:39:25;;;;;;;7.35;5.63;;;3.20;99.90;;;;;;5015131;28;20084;-57
2022/02/25 02:41:51;;;;;;;8.00;5.43;;;3.10;99.90;;;;;;4997537;28;20037;-59
2022/02/25 02:44:16;;;;;;;8.02;5.25;;;3.10;99.90;;;;;;5014203;28;20057;-59
2022/02/25 02:46:42;;;;;;;9.15;5.20;;;3.10;99.90;;;;;;5014978;28;20527;-56
2022/02/25 02:49:08;;;;;;;6.10;5.22;;;3.10;99.90;;;;;;5015231;28;20090;-53
2022/02/25 02:51:36;;;;;;;8.60;5.43;;;3.20;99.90;;;;;;5015311;28;20382;-54
2022/02/25 02:54:02;;;;;;;10.10;6.00;;;3.20;99.90;;;;;;5014891;28;20037;-56
2022/02/25 02:56:29;;;;;;;10.63;5.22;;;3.20;99.90;;;;;;5015124;28;20401;-54
2022/02/25 02:58:55;;;;;;;7.68;5.25;;;3.30;99.90;;;;;;5014925;28;20018;-56
2022/02/25 03:01:30;;;;;;;6.13;4.85;;;3.30;99.90;;;;;;5015388;28;20018;-58
2022/02/25 03:03:58;;;;;;;;;;;3.40;99.90;;;;;;5015018;28;20034;-55
2022/02/25 03:06:25;;;;;;;7.43;4.97;;;3.50;99.90;;;;;;5014496;28;20451;-57
2022/02/25 03:08:52;;;;;;;8.55;5.72;;;3.50;99.90;;;;;;5014786;28;20084;-55
2022/02/25 03:11:18;;;;;;;7.68;5.13;;;3.30;99.90;;;;;;5014732;28;20057;-53
2022/02/25 03:13:43;;;;;;;7.15;5.15;;;3.30;99.90;;;;;;5015552;28;20432;-56
2022/02/25 03:16:09;;;;;;;7.55;5.57;;;3.30;99.90;;;;;;4997846;28;20109;-57
2022/02/25 03:18:37;;;;;;;7.18;5.10;;;3.20;99.90;;;;;;5016121;28;20137;-56
2022/02/25 03:21:03;;;;;;;6.88;5.70;;;3.30;99.90;;;;;;5015101;28;20481;-56
2022/02/25 03:23:28;;;;;;;7.57;5.47;;;3.20;99.90;;;;;;5014568;28;20164;-58
2022/02/25 03:25:54;;;;;;;7.28;5.20;;;3.30;99.90;;;;;;5013588;28;20061;-57
2022/02/25 03:28:19;;;;;;;7.93;4.72;;;3.20;99.90;;;;;;4996173;28;20034;-58
2022/02/25 03:30:45;;;;;;;7.70;5.28;;;3.20;99.90;;;;;;5014540;28;20030;-56
2022/02/25 03:33:11;;;;;;;8.27;5.53;;;3.40;99.90;;;;;;5013963;28;20033;-56
2022/02/25 03:35:38;;;;;;;8.05;5.45;;;3.30;99.90;;;;;;5026504;28;20133;-57
2022/02/25 03:38:04;;;;;;;8.00;5.18;;;3.20;99.90;;;;;;5034602;28;20030;-56
2022/02/25 03:40:29;;;;;;;6.75;5.13;;;3.20;99.90;;;;;;5033736;28;20087;-52
2022/02/25 03:42:56;;;;;;;8.77;5.50;;;3.00;99.90;;;;;;5013689;28;20042;-56
2022/02/25 03:45:22;;;;;;;6.22;4.80;;;3.00;99.90;;;;;;5014170;28;20112;-54
2022/02/25 03:47:48;;;;;;;7.55;5.30;;;2.90;99.90;;;;;;5013873;28;20073;-57
2022/02/25 03:50:13;;;;;;;8.15;5.07;;;3.00;99.90;;;;;;5014205;28;20053;-55
2022/02/25 03:52:39;;;;;;;7.53;5.15;;;2.90;99.90;;;;;;5013516;28;20057;-57
2022/02/25 03:55:07;;;;;;;6.53;4.95;;;2.80;99.90;;;;;;5014403;28;20095;-59
2022/02/25 03:57:32;;;;;;;7.35;5.35;;;2.80;99.90;;;;;;5014751;28;20030;-56
2022/02/25 03:59:58;;;;;;;7.32;5.45;;;2.80;99.90;;;;;;5014437;28;20041;-57
2022/02/25 04:02:24;;;;;;;8.15;4.40;;;2.80;99.90;;;;;;5012690;28;20029;-56
2022/02/25 04:04:50;;;;;;;7.88;5.10;;;2.80;99.90;;;;;;4996389;28;20034;-57
2022/02/25 04:07:15;;;;;;;8.35;4.63;;;2.60;99.90;;;;;;5012336;28;20026;-56
2022/02/25 04:09:41;;;;;;;7.10;4.78;;;2.60;99.90;;;;;;5013696;28;20041;-59
2022/02/25 04:12:07;;;;;;;7.97;4.60;;;2.60;99.90;;;;;;5013446;28;20120;-56
2022/02/25 04:14:33;;;;;;;4.93;4.25;;;2.50;99.90;;;;;;5013786;28;20490;-57
2022/02/25 04:16:58;;;;;;;5.32;4.28;;;2.60;99.90;;;;;;5014679;28;20029;-57
2022/02/25 04:19:24;;;;;;;5.68;3.90;;;2.60;99.90;;;;;;5016962;28;20030;-57
2022/02/25 04:21:50;;;;;;;8.35;4.38;;;2.70;99.90;;;;;;5013397;28;20037;-58
2022/02/25 04:24:16;;;;;;;6.13;4.07;;;2.60;99.90;;;;;;5012791;28;20516;-59
2022/02/25 04:26:42;;;;;;;6.65;4.13;;;2.60;99.90;;;;;;5013350;28;20112;-57
2022/02/25 04:29:08;;;;;;;6.68;3.50;;;2.60;99.90;;;;;;5012749;28;20096;-57
2022/02/25 04:31:34;;;;;;;5.80;3.75;;;2.70;99.90;;;;;;5012580;28;20053;-56
2022/02/25 04:33:59;;;;;;;6.60;4.18;;;2.80;99.90;;;;;;5012946;28;20038;-55
2022/02/25 04:36:25;;;;;;;6.53;4.22;;;2.70;99.90;;;;;;5031630;28;20037;-54
2022/02/25 04:38:54;;;;;;;5.93;3.90;;;2.70;99.90;;;;;;5014389;28;20029;-54
2022/02/25 04:41:21;;;;;;;7.28;4.22;;;2.60;99.90;;;;;;5026435;28;20037;-57
2022/02/25 04:43:46;;;;;;;7.43;4.10;;;2.70;99.90;;;;;;5012774;28;20022;-58
2022/02/25 04:46:25;;;;;;;7.40;4.38;;;2.70;99.90;;;;;;5013049;28;20040;-59
2022/02/25 04:48:51;;;;;;;7.28;4.95;;;2.60;99.90;;;;;;5013495;28;20026;-57
2022/02/25 04:51:16;;;;;;;5.53;4.55;;;2.40;99.90;;;;;;5013091;28;20478;-55
2022/02/25 04:53:45;;;;;;;7.80;5.13;;;2.50;99.90;;;;;;5011711;28;20030;-58
2022/02/25 04:56:12;;;;;;;6.20;4.40;;;2.60;99.90;;;;;;5013145;28;20478;-57
2022/02/25 04:58:38;;;;;;;5.38;4.35;;;2.70;99.90;;;;;;5013254;28;20072;-56
2022/02/25 05:01:05;;;;;;;8.25;4.07;;;2.70;99.90;;;;;;5013433;28;20060;-56
2022/02/25 05:03:32;;;;;;;6.90;4.72;;;2.70;99.90;;;;;;5012789;28;20050;-56
2022/02/25 05:05:58;;;;;;;6.55;4.00;;;2.60;99.90;;;;;;4995578;28;20026;-57
2022/02/25 05:08:24;;;;;;;7.05;4.40;;;2.70;99.90;;;;;;5012534;28;20494;-57
2022/02/25 05:10:50;;;;;;;7.03;4.38;;;2.70;99.90;;;;;;5012850;28;20048;-56
2022/02/25 05:13:18;;;;;;;6.10;4.53;;;2.80;99.90;;;;;;5012618;28;20037;-60
2022/02/25 05:21:14;;;;;;;7.22;4.30;;;2.80;99.90;;;;;;5013215;28;20030;-58
2022/02/25 05:23:39;;;;;;;6.03;4.00;;;2.70;99.90;;;;;;5013167;28;20042;-58
2022/02/25 05:26:05;;;;;;;6.32;3.47;;;2.80;99.90;;;;;;5013398;28;20030;-56
2022/02/25 05:28:30;;;;;;;6.78;3.65;;;2.80;99.90;;;;;;5012645;28;20031;-57
2022/02/25 05:30:56;;;;;;;8.07;3.65;;;2.90;99.90;;;;;;5012952;28;20042;-59
2022/02/25 05:33:22;;;;;;;4.88;3.38;;;2.80;99.90;;;;;;5012363;28;20092;-58
2022/02/25 05:35:47;;;;;;;6.57;4.20;;;2.80;99.90;;;;;;4995361;28;20137;-55
2022/02/25 05:38:13;;;;;;;5.88;3.70;;;2.90;99.90;;;;;;5012235;28;20113;-56
2022/02/25 05:40:39;;;;;;;5.03;3.38;;;2.90;99.90;;;;;;5011442;28;20076;-58
2022/02/25 05:43:05;;;;;;;4.88;3.55;;;2.90;99.90;;;;;;5011793;28;20451;-60
2022/02/25 05:45:31;;;;;;;5.35;3.17;;;2.90;99.90;;;;;;5011436;28;20034;-59
2022/02/25 05:47:57;;;;;;;5.95;3.20;;;2.90;99.90;;;;;;4995130;28;20474;-58
2022/02/25 05:50:23;;;;;;;5.68;3.47;;;3.00;99.90;;;;;;5015774;28;20093;-58
2022/02/25 05:52:49;;;;;;;5.18;3.10;;;3.10;99.90;;;;;;5016039;28;20080;-58
2022/02/25 05:55:17;;;;;;;3.80;3.00;;;3.10;99.90;;;;;;5015882;28;20509;-59
2022/02/25 05:57:44;;;;;;;4.25;3.00;;;3.10;99.90;;;;;;5014933;28;20034;-56
2022/02/25 06:00:12;;;;;;;8.13;3.17;;;3.10;99.90;;;;;;5016043;28;20204;-58
2022/02/25 06:02:38;;;;;;;5.55;2.83;;;3.00;99.90;;;;;;5016298;28;20060;-53
2022/02/25 06:05:04;;;;;;;4.75;2.75;;;3.10;99.90;;;;;;5015880;28;20132;-56
2022/02/25 06:07:30;;;;;;;7.22;3.22;;;3.10;99.90;;;;;;5015894;28;20073;-58
2022/02/25 06:09:55;;;;;;;5.22;3.00;;;3.10;99.90;;;;;;5014816;28;20065;-58
2022/02/25 06:12:21;;;;;;;8.02;2.75;;;3.10;99.90;;;;;;5014283;28;20038;-58
2022/02/25 06:14:47;;;;;;;3.70;2.72;;;3.10;99.90;;;;;;5015598;28;20022;-55
2022/02/25 06:17:12;;;;;;;7.53;3.10;;;3.10;99.90;;;;;;4998258;28;20045;-56
2022/02/25 06:19:38;;;;;;;6.97;3.40;;;3.10;99.90;;;;;;5015525;28;20029;-55
2022/02/25 06:22:03;;;;;;;5.05;3.10;;;3.00;99.90;;;;;;5014929;28;20048;-58
2022/02/25 06:24:29;;;;;;;5.80;3.05;;;3.00;99.90;;;;;;5015812;28;20042;-58
2022/02/25 06:26:55;;;;;;;6.47;3.58;;;3.00;99.90;;;;;;5015899;28;20397;-58
2022/02/25 06:29:20;;;;;;;4.82;3.05;;;3.00;99.90;;;;;;4998968;28;20041;-56
2022/02/25 06:31:46;;;;;;;3.85;3.00;;;3.00;99.90;;;;;;5016880;28;20033;-59
2022/02/25 06:34:12;;;;;;;5.00;2.83;;;3.00;99.90;;;;;;5016430;28;20038;-59
2022/02/25 06:36:38;;;;;;;5.07;3.17;;;3.00;99.90;;;;;;5014355;28;20033;-57
2022/02/25 06:39:04;;;;;;;5.65;2.95;;;3.00;99.90;;;;;;5010670;28;20034;-56
2022/02/25 06:41:29;;;;;;;7.03;3.33;;;3.00;99.90;;;;;;5015231;28;20022;-55
2022/02/25 06:43:56;;;;;;;5.45;3.53;;;3.00;99.90;;;;;;5014912;28;20050;-56
2022/02/25 06:46:22;;;;;;;6.38;3.47;;;3.00;99.90;;;;;;5022421;28;20033;-53
2022/02/25 06:48:48;;;;;;;4.75;3.55;;;3.00;99.90;;;;;;5016195;28;20140;-54
2022/02/25 06:51:14;;;;;;;6.78;4.25;;;3.00;99.90;;;;;;5015517;28;20498;-53
2022/02/25 06:53:39;;;;;;;6.45;3.90;;;3.10;99.90;;;;;;5014575;28;20044;-58
2022/02/25 06:56:05;;;;;;;6.03;4.15;;;3.00;99.90;;;;;;5014985;28;20053;-57
2022/02/25 06:58:31;;;;;;;9.25;4.88;;;3.00;99.90;;;;;;5015289;28;20133;-54
2022/02/25 07:00:57;;;;;;;8.95;4.47;;;3.00;99.90;;;;;;5014256;28;20438;-60
2022/02/25 07:03:22;;;;;;;5.30;4.43;;;3.00;99.90;;;;;;5020448;28;20058;-56
2022/02/25 07:05:48;;;;;;;8.60;5.13;;;3.00;99.90;;;;;;5017239;28;20030;-59
2022/02/25 07:08:14;;;;;;;7.65;5.38;;;3.00;99.90;;;;;;5013874;28;20030;-57
2022/02/25 07:10:41;;;;;;;9.25;5.25;;;3.10;99.90;;;;;;5020360;28;20184;-58
2022/02/25 07:13:08;;;;;;;8.68;5.78;;;3.10;99.90;;;;;;5014982;28;20046;-58
2022/02/25 07:15:35;;;;;;;10.75;5.85;;;3.00;99.90;;;;;;5015310;28;20091;-57
2022/02/25 07:18:01;;;;;;;7.40;5.20;;;3.10;99.90;;;;;;5014754;28;20486;-59
2022/02/25 07:20:27;;;;;;;7.72;5.65;;;3.20;99.90;;;;;;5014105;28;20120;-57
2022/02/25 07:22:53;;;;;;;11.15;7.15;;;3.20;99.90;;;;;;5014313;28;20046;-57
2022/02/25 07:25:19;;;;;;;10.23;6.05;;;3.30;99.90;;;;;;5014859;28;20400;-58
2022/02/25 07:27:45;;;;;;;8.68;6.93;;;3.30;99.90;;;;;;5013775;28;20037;-57
2022/02/25 07:30:12;;;;;;;10.43;7.57;;;3.40;99.90;;;;;;5015075;28;20121;-57
2022/02/25 07:32:38;;;;;;;11.38;7.30;;;3.40;99.90;;;;;;5016290;28;20080;-55
2022/02/25 07:35:06;;;;;;;10.77;7.15;;;3.30;99.90;;;;;;5023158;28;20133;-57
2022/02/25 07:37:32;;;;;;;15.00;6.45;;;3.40;99.90;;;;;;5017731;28;20052;-54
2022/02/25 07:39:57;;;;;;;7.60;5.95;;;3.40;99.90;;;;;;5035157;28;20481;-57
2022/02/25 07:42:23;;;;;;;11.23;5.80;;;3.50;99.90;;;;;;5000737;28;20074;-58
2022/02/25 07:44:49;;;;;;;10.73;6.13;;;3.50;99.90;;;;;;5013110;28;20040;-60
2022/02/25 07:47:16;;;;;;;10.20;6.45;;;3.50;99.90;;;;;;5013668;28;20017;-58
2022/02/25 07:49:44;;;;;;;10.10;6.13;;;3.60;99.90;;;;;;5012838;28;20026;-58
2022/02/25 07:52:09;;;;;;;11.10;6.53;;;3.70;99.90;;;;;;5012541;28;20022;-56
2022/02/25 07:54:35;;;;;;;11.88;6.07;;;3.70;99.90;;;;;;5012577;28;20076;-58
2022/02/25 07:57:00;;;;;;;8.57;6.13;;;3.70;99.90;;;;;;5012852;28;20045;-57
2022/02/25 07:59:26;;;;;;;11.60;7.65;;;3.80;99.90;;;;;;5012842;28;20434;-57
2022/02/25 08:01:52;;;;;;;9.65;6.22;;;3.80;99.90;;;;;;5012784;28;20064;-58
2022/02/25 08:04:18;;;;;;;14.00;5.78;;;3.90;99.90;;;;;;5012541;28;20133;-58
2022/02/25 08:06:45;;;;;;;14.52;6.05;;;3.80;99.90;;;;;;4995135;28;20106;-58
2022/02/25 08:09:11;;;;;;;9.73;5.47;;;3.90;99.90;;;;;;5012558;28;20026;-58
2022/02/25 08:11:37;;;;;;;11.20;5.75;;;4.10;99.90;;;;;;5012428;28;20022;-61
2022/02/25 08:14:05;;;;;;;14.65;5.68;;;4.10;99.90;;;;;;5012529;28;20030;-59
2022/02/25 08:16:31;;;;;;;9.13;5.40;;;4.00;99.90;;;;;;5011559;28;20054;-59
2022/02/25 08:18:56;;;;;;;9.32;5.45;;;4.10;99.90;;;;;;5012584;28;20072;-58
2022/02/25 08:21:22;;;;;;;9.68;5.88;;;4.10;99.90;;;;;;5012522;28;20040;-56
2022/02/25 08:23:48;;;;;;;10.90;5.28;;;4.10;99.90;;;;;;5011873;28;20629;-59
2022/02/25 08:26:14;;;;;;;9.10;4.75;;;4.20;99.90;;;;;;5012045;28;20029;-55
2022/02/25 08:28:40;;;;;;;8.05;5.15;;;4.30;99.90;;;;;;5012294;28;20367;-60
2022/02/25 08:31:11;;;;;;;8.18;4.90;;;4.30;99.90;;;;;;5011022;28;20040;-58
2022/02/25 08:33:39;;;;;;;10.48;5.20;;;4.40;99.90;;;;;;5011036;28;20375;-57
2022/02/25 08:36:06;;;;;;;11.18;4.78;;;4.50;99.90;;;;;;5013832;28;20053;-55
2022/02/25 08:38:32;;;;;;;11.50;5.57;;;4.50;99.90;;;;;;5011753;28;20034;-57
2022/02/25 08:40:57;;;;;;;12.23;4.93;;;4.50;99.90;;;;;;5011975;28;20033;-57
2022/02/25 08:43:24;;;;;;;10.90;5.63;;;4.50;99.90;;;;;;5011678;28;20065;-54
2022/02/25 08:45:50;;;;;;;11.73;5.10;;;4.50;99.90;;;;;;5012184;28;20045;-55
2022/02/25 08:48:16;;;;;;;9.77;4.70;;;4.50;99.90;;;;;;5012331;28;20026;-55
2022/02/25 08:50:42;;;;;;;13.43;5.07;;;4.50;99.90;;;;;;5012064;28;20030;-56
2022/02/25 08:53:08;;;;;;;7.97;4.50;;;4.60;99.90;;;;;;5012006;28;20069;-60
2022/02/25 08:55:33;;;;;;;8.95;4.70;;;4.60;99.90;;;;;;5012477;28;20053;-56
2022/02/25 08:57:59;;;;;;;10.63;5.35;;;4.50;99.90;;;;;;5012035;28;20069;-59
2022/02/25 09:00:26;;;;;;;11.45;4.95;;;4.60;99.90;;;;;;5012521;28;20401;-58
2022/02/25 09:02:53;;;;;;;11.63;5.15;;;4.70;99.90;;;;;;5011547;28;20042;-55
2022/02/25 09:05:21;;;;;;;11.40;5.30;;;4.80;99.90;;;;;;5011967;28;20116;-57
2022/02/25 09:07:48;;;;;;;9.00;5.07;;;4.80;99.90;;;;;;5011554;28;20042;-56
2022/02/25 09:10:15;;;;;;;13.35;5.40;;;4.80;99.90;;;;;;5011870;28;20468;-55
2022/02/25 09:12:42;;;;;;;9.48;4.93;;;4.80;99.90;;;;;;5010242;28;20026;-56
2022/02/25 09:15:10;;;;;;;9.55;4.90;;;4.80;99.90;;;;;;5012026;28;20037;-56
2022/02/25 09:17:36;;;;;;;17.67;4.72;;;5.00;99.90;;;;;;5011782;28;20033;-57
2022/02/25 09:20:04;;;;;;;12.57;5.03;;;5.00;99.60;;;;;;4993908;28;20064;-55
2022/02/25 09:22:30;;;;;;;8.45;4.20;;;4.90;99.50;;;;;;4993995;28;20034;-57
2022/02/25 09:24:55;;;;;;;17.00;5.28;;;5.00;99.40;;;;;;5013725;28;20501;-54
2022/02/25 09:27:22;;;;;;;7.75;4.85;;;5.00;99.50;;;;;;5015506;28;20033;-54
2022/02/25 09:29:49;;;;;;;10.50;3.92;;;5.00;99.00;;;;;;5020989;28;20394;-57
2022/02/25 09:32:14;;;;;;;9.25;4.00;;;4.90;99.00;;;;;;5015996;28;20042;-55
2022/02/25 09:34:40;;;;;;;10.23;4.22;;;4.90;99.20;;;;;;5015049;28;20034;-58
2022/02/25 09:37:05;;;;;;;8.80;4.28;;;5.00;99.40;;;;;;5011554;28;20065;-61
2022/02/25 09:39:32;;;;;;;9.93;4.32;;;5.10;99.20;;;;;;5015239;28;20053;-60
2022/02/25 09:41:58;;;;;;;9.73;3.92;;;5.10;99.20;;;;;;5017148;28;20486;-58
2022/02/25 09:44:25;;;;;;;11.23;4.22;;;5.30;99.10;;;;;;5016460;28;20038;-55
2022/02/25 09:46:51;;;;;;;7.25;3.85;;;5.20;98.40;;;;;;5017545;28;20031;-58
2022/02/25 09:49:18;;;;;;;7.18;3.53;;;5.20;98.60;;;;;;5016825;28;20022;-54
2022/02/25 09:51:45;;;;;;;6.80;3.63;;;5.20;98.30;;;;;;5018026;28;20030;-58
2022/02/25 09:54:16;;;;;;;8.32;3.65;;;5.20;98.20;;;;;;5020470;28;20087;-57
2022/02/25 09:56:42;;;;;;;9.00;3.83;;;5.50;97.90;;;;;;5030171;28;20049;-55
2022/02/25 09:59:08;;;;;;;7.43;3.70;;;5.50;97.50;;;;;;4999796;28;20061;-56
2022/02/25 10:01:35;;;;;;;12.07;4.10;;;5.40;98.00;;;;;;5014707;28;20033;-55
2022/02/25 10:04:16;;;;;;;7.47;3.85;;;5.50;97.60;;;;;;5014653;28;20029;-55
2022/02/25 10:06:43;;;;;;;11.20;3.67;;;5.60;97.90;;;;;;5010823;28;20038;-59
2022/02/25 10:09:34;;;;;;;10.25;4.05;;;5.70;97.60;;;;;;5021531;28;20034;-55
2022/02/25 10:12:11;;;;;;;10.27;3.40;;;5.70;97.30;;;;;;5014646;28;20061;-58
2022/02/25 10:14:42;;;;;;;14.55;4.10;;;5.70;97.50;;;;;;5003363;28;20034;-59
2022/02/25 10:17:27;;;;;;;6.93;3.53;;;5.80;97.20;;;;;;5015546;28;20033;-59
2022/02/25 10:19:54;;;;;;;8.05;3.75;;;5.80;97.00;;;;;;5011732;28;20385;-55
2022/02/25 10:22:30;;;;;;;10.20;3.40;;;5.80;97.30;;;;;;5014144;28;20041;-59
2022/02/25 10:25:09;;;;;;;6.93;3.83;;;5.80;97.00;;;;;;5012439;28;20030;-60
2022/02/25 10:27:41;;;;;;;9.57;3.75;;;5.70;97.30;;;;;;5012539;28;20486;-56
2022/02/25 10:30:09;;;;;;;10.13;3.55;;;5.70;97.80;;;;;;5014437;28;20449;-58
2022/02/25 10:32:36;;;;;;;8.27;3.95;;;5.80;98.00;;;;;;5014152;28;20042;-57
2022/02/25 10:35:27;;;;;;;8.02;3.58;;;5.80;97.50;;;;;;5017168;28;20121;-55
2022/02/25 10:37:54;;;;;;;8.48;3.65;;;5.80;96.70;;;;;;5011714;28;20025;-60
2022/02/25 10:40:20;;;;;;;11.02;3.60;;;5.70;97.00;;;;;;5014426;28;20022;-57
2022/02/25 10:42:46;;;;;;;8.80;3.92;;;5.70;97.00;;;;;;4992657;28;20805;-59
2022/02/25 10:45:11;;;;;;;8.35;3.72;;;5.80;96.90;;;;;;5014205;28;20136;-55
2022/02/25 10:47:43;;;;;;;12.55;3.50;;;5.80;97.10;;;;;;5013572;28;20030;-54
2022/02/25 10:50:12;;;;;;;10.75;3.13;;;5.90;97.40;;;;;;5002164;28;20045;-55
2022/02/25 10:52:45;;;;;;;9.98;3.72;;;5.90;96.90;;;;;;5013479;28;20022;-57
2022/02/25 10:55:17;;;;;;;11.15;3.50;;;5.90;97.20;;;;;;5014208;28;20033;-52
2022/02/25 10:57:42;;;;;;;7.90;3.38;;;5.90;97.00;;;;;;5014248;28;20045;-56
2022/02/25 11:00:14;;;;;;;8.52;3.60;;;5.90;96.90;;;;;;5015134;28;20041;-55
2022/02/25 11:02:47;;;;;;;9.07;3.95;;;5.90;97.60;;;;;;5013868;28;20034;-59
2022/02/25 11:05:21;;;;;;;5.80;2.85;;;5.90;97.30;;;;;;5014614;28;20572;-57
2022/02/25 11:07:50;;;;;;;8.98;3.60;;;6.00;97.00;;;;;;4994038;28;20039;-57
2022/02/25 11:10:18;;;;;;;7.60;2.97;;;5.80;96.90;;;;;;4994199;28;20507;-57
2022/02/25 11:12:45;;;;;;;9.75;3.33;;;5.70;97.20;;;;;;5006927;28;20076;-59
2022/02/25 11:15:23;;;;;;;7.72;3.30;;;5.80;96.90;;;;;;5012995;28;20045;-57
2022/02/25 11:17:49;;;;;;;10.05;3.78;;;5.80;96.70;;;;;;5012854;28;20042;-59
2022/02/25 11:20:32;;;;;;;8.90;3.17;;;5.80;96.70;;;;;;5013583;28;20129;-58
2022/02/25 11:23:07;;;;;;;7.05;3.92;;;5.90;96.10;;;;;;5013298;28;20393;-57
2022/02/25 11:25:35;;;;;;;8.70;3.22;;;6.20;95.80;;;;;;5013663;28;20096;-56
2022/02/25 11:28:02;;;;;;;7.60;3.65;;;6.30;95.40;;;;;;5013732;28;20030;-59
2022/02/25 11:30:46;;;;;;;9.68;3.72;;;6.40;95.20;;;;;;5015264;28;20041;-58
2022/02/25 11:33:23;;;;;;;5.60;3.00;;;6.60;94.20;;;;;;5013985;28;20212;-59
2022/02/25 11:35:59;;;;;;;8.68;3.42;;;6.30;94.20;;;;;;5027009;28;20493;-56
2022/02/25 11:38:40;;;;;;;6.05;3.03;;;6.40;94.90;;;;;;5033068;28;20642;-58
2022/02/25 11:41:14;;;;;;;10.52;3.13;;;6.70;95.00;;;;;;5028052;28;20080;-59
2022/02/25 11:44:15;;;;;;;9.68;3.05;;;6.80;94.00;;;;;;5013238;28;20030;-56
2022/02/25 11:46:44;;;;;;;6.32;3.05;;;6.50;94.40;;;;;;5002141;28;20068;-54
2022/02/25 11:49:15;;;;;;;9.32;3.42;;;6.30;94.70;;;;;;4995509;28;20477;-56
2022/02/25 11:51:50;;;;;;;7.57;3.22;;;6.30;95.20;;;;;;5013277;28;20502;-57
2022/02/25 11:54:28;;;;;;;10.35;3.40;;;6.10;95.80;;;;;;5011818;28;20124;-60
2022/02/25 11:56:57;;;;;;;8.48;3.00;;;6.20;95.70;;;;;;5013188;28;20026;-57
2022/02/25 11:59:42;;;;;;;6.03;2.78;;;6.10;96.00;;;;;;5012872;28;20124;-60
2022/02/25 12:02:16;;;;;;;8.15;4.20;;;6.30;96.20;;;;;;4981894;28;20041;-57
2022/02/25 12:04:47;;;;;;;6.25;3.28;;;6.30;96.40;;;;;;5012983;28;20061;-58
2022/02/25 12:07:15;;;;;;;11.32;4.45;;;6.30;96.60;;;;;;5011079;28;20091;-56
2022/02/25 12:09:50;;;;;;;14.00;3.78;;;6.10;96.50;;;;;;5013655;28;20124;-58
2022/02/25 12:12:24;;;;;;;11.23;3.53;;;6.10;96.50;;;;;;5013057;28;20486;-58
2022/02/25 12:15:12;;;;;;;7.43;3.22;;;6.10;96.90;;;;;;5012554;28;20536;-58
2022/02/25 12:17:55;;;;;;;16.00;3.70;;;6.10;96.60;;;;;;5012297;28;20378;-54
2022/02/25 12:20:23;;;;;;;9.07;3.80;;;6.00;96.80;;;;;;5013068;28;20022;-59
2022/02/25 12:22:53;;;;;;;9.75;3.20;;;5.90;97.00;;;;;;4994999;28;20551;-57
2022/02/25 12:25:47;;;;;;;9.20;3.08;;;6.00;97.30;;;;;;5012584;28;20033;-57
2022/02/25 12:28:28;;;;;;;10.93;3.33;;;6.00;97.00;;;;;;5012581;28;20032;-57
2022/02/25 12:31:15;;;;;;;9.43;3.40;;;6.00;96.60;;;;;;5012596;28;20021;-60
2022/02/25 12:33:44;;;;;;;9.82;3.45;;;5.90;96.60;;;;;;5012301;28;20025;-59
2022/02/25 12:36:29;;;;;;;9.50;3.35;;;5.80;96.50;;;;;;5028540;28;20497;-59
2022/02/25 12:39:09;;;;;;;11.85;2.90;;;5.90;96.70;;;;;;5030861;28;20037;-55
2022/02/25 12:41:41;;;;;;;8.88;3.60;;;5.90;96.70;;;;;;5019392;28;20038;-56
2022/02/25 12:44:20;;;;;;;10.00;3.80;;;5.90;96.80;;;;;;5011892;28;20387;-58
2022/02/25 12:46:54;;;;;;;7.32;3.15;;;5.90;97.10;;;;;;5010434;28;20034;-58
2022/02/25 12:49:22;;;;;;;9.32;3.40;;;5.90;97.60;;;;;;5024095;28;20022;-56
2022/02/25 12:51:48;;;;;;;17.10;4.03;;;5.80;97.60;;;;;;5022859;28;20083;-59
2022/02/25 12:54:17;;;;;;;12.25;4.00;;;5.80;98.00;;;;;;5013319;28;20109;-60
2022/02/25 12:56:56;;;;;;;8.45;3.17;;;5.70;98.50;;;;;;5012974;28;20030;-58
2022/02/25 12:59:31;;;;;;;8.57;3.30;;;5.80;98.90;;;;;;5011047;28;20026;-59
2022/02/25 13:01:58;;;;;;;9.07;3.72;;;5.70;99.60;;;;;;5014832;28;20397;-61
2022/02/25 13:04:27;;;;;;;16.20;3.78;;;5.60;99.90;;;;;;5011747;28;20093;-59